Nickerson, Minnesota
Current Conditions -  °F | °C
As of 3:36 AM on Tuesday 21 Oct 2014 (Local Time) from KCOQ Reporting Station
Overcast Overcast  
Wind Chill: 39°   Ceiling: 1300
Heat Index: 43°   Visibility: 10mi
Dew Point: 37°   Wind: 6mph
Humidity: 81%   Direction: 90°E
Pressure: 30.16"   Gusts: NA
Location:  46.5695°N, 92.3576°W
Report Text: KCOQ 210836Z AUTO 09005KT 10SM BKN013 OVC027 06/03 A3016 RMK AO2
Loading
Personal Weather Stations






























Interactive Weather Map
Tropical Storm Tracking
New forecast layout! Learn more

10-Day Weather Forecast

Advertisements
Track Severe Weather on mobile